IBE04ST LEBL-LEMD
Flight info
| Callsign | IBE04ST |
|---|---|
| Flight time | 0h 54m |
| Altitude | 28000 |
| Route | SENIA Z596 CRETA/N0443F290 Z596 NEXAS N975 ADUXO |
| Aircraft | A321/M-SDE3FGHIRWY/LB1 |
Departure
| Time | 2026-05-01 08:54 |
|---|---|
| Airport | Josep Tarradellas Barcelona-El Prat Airport (LEBL) |
Arrival
| Time | 2026-05-01 09:49 |
|---|---|
| Airport | Adolfo Suárez Madrid–Barajas Airport (LEMD) |
| Time | Latitude | Longitude | Altitude | Speed | Heading |
|---|---|---|---|---|---|
| 2026-05-01 08:21 | 41.29013 | 2.08001 | 19 ft | 0 kts | 335° |
| 2026-05-01 08:46 | 41.29013 | 2.08002 | 19 ft | 1 kts | 335° |
| 2026-05-01 08:46 | 41.28992 | 2.08014 | 19 ft | 4 kts | 335° |
| 2026-05-01 08:46 | 41.28971 | 2.08027 | 21 ft | 2 kts | 335° |
| 2026-05-01 08:46 | 41.28951 | 2.08045 | 20 ft | 4 kts | 293° |
| 2026-05-01 08:47 | 41.28951 | 2.08073 | 20 ft | 3 kts | 245° |
| 2026-05-01 08:47 | 41.28960 | 2.08099 | 21 ft | 0 kts | 245° |
| 2026-05-01 08:50 | 41.28957 | 2.08092 | 21 ft | 4 kts | 245° |
| 2026-05-01 08:50 | 41.28931 | 2.08017 | 20 ft | 10 kts | 238° |
| 2026-05-01 08:50 | 41.28870 | 2.08016 | 21 ft | 9 kts | 158° |
| 2026-05-01 08:50 | 41.28812 | 2.08050 | 18 ft | 10 kts | 155° |
| 2026-05-01 08:51 | 41.28745 | 2.08086 | 16 ft | 11 kts | 170° |
| 2026-05-01 08:51 | 41.28697 | 2.08025 | 17 ft | 10 kts | 246° |
| 2026-05-01 08:51 | 41.28654 | 2.07973 | 15 ft | 8 kts | 179° |
| 2026-05-01 08:51 | 41.28609 | 2.07968 | 16 ft | 7 kts | 206° |
| 2026-05-01 08:52 | 41.28566 | 2.07867 | 18 ft | 17 kts | 245° |
| 2026-05-01 08:52 | 41.28519 | 2.07734 | 16 ft | 15 kts | 245° |
| 2026-05-01 08:52 | 41.28476 | 2.07605 | 17 ft | 18 kts | 245° |
| 2026-05-01 08:52 | 41.28415 | 2.07425 | 17 ft | 20 kts | 246° |
| 2026-05-01 08:53 | 41.28364 | 2.07342 | 16 ft | 10 kts | 207° |
| 2026-05-01 08:53 | 41.28299 | 2.07355 | 16 ft | 10 kts | 156° |
| 2026-05-01 08:53 | 41.28242 | 2.07390 | 18 ft | 8 kts | 152° |
| 2026-05-01 08:53 | 41.28235 | 2.07445 | 18 ft | 9 kts | 69° |
| 2026-05-01 08:54 | 41.28321 | 2.07697 | 21 ft | 63 kts | 65° |
| 2026-05-01 08:54 | 41.28590 | 2.08484 | 24 ft | 122 kts | 65° |
| 2026-05-01 08:54 | 41.28990 | 2.09668 | 246 ft | 146 kts | 66° |
| 2026-05-01 08:54 | 41.29230 | 2.10498 | 706 ft | 145 kts | 76° |
| 2026-05-01 08:55 | 41.29260 | 2.11863 | 1293 ft | 155 kts | 91° |
| 2026-05-01 08:55 | 41.29134 | 2.13385 | 1598 ft | 176 kts | 93° |
| 2026-05-01 08:55 | 41.28979 | 2.15073 | 1952 ft | 189 kts | 94° |
| 2026-05-01 08:55 | 41.28817 | 2.16822 | 2483 ft | 191 kts | 95° |
| 2026-05-01 08:56 | 41.28655 | 2.18580 | 3064 ft | 192 kts | 95° |
| 2026-05-01 08:56 | 41.28494 | 2.20333 | 3661 ft | 191 kts | 96° |
| 2026-05-01 08:56 | 41.28332 | 2.22107 | 4167 ft | 195 kts | 96° |
| 2026-05-01 08:56 | 41.28168 | 2.23920 | 4633 ft | 201 kts | 96° |
| 2026-05-01 08:57 | 41.28001 | 2.25780 | 5137 ft | 204 kts | 97° |
| 2026-05-01 08:57 | 41.27833 | 2.27661 | 5628 ft | 207 kts | 98° |
| 2026-05-01 08:57 | 41.27665 | 2.29565 | 6162 ft | 208 kts | 98° |
| 2026-05-01 08:57 | 41.27334 | 2.31444 | 6630 ft | 212 kts | 113° |
| 2026-05-01 08:58 | 41.26538 | 2.33181 | 6760 ft | 232 kts | 134° |
| 2026-05-01 08:58 | 41.25065 | 2.34266 | 6941 ft | 259 kts | 168° |
| 2026-05-01 08:58 | 41.23241 | 2.33976 | 7394 ft | 276 kts | 204° |
| 2026-05-01 08:58 | 41.21789 | 2.32287 | 8025 ft | 287 kts | 236° |
| 2026-05-01 08:59 | 41.20964 | 2.29850 | 8760 ft | 292 kts | 250° |
| 2026-05-01 08:59 | 41.20455 | 2.27213 | 9476 ft | 298 kts | 257° |
| 2026-05-01 08:59 | 41.20061 | 2.24502 | 10219 ft | 300 kts | 258° |
| 2026-05-01 08:59 | 41.19665 | 2.21717 | 10580 ft | 317 kts | 258° |
| 2026-05-01 09:00 | 41.19202 | 2.18749 | 10711 ft | 339 kts | 257° |
| 2026-05-01 09:00 | 41.18660 | 2.15607 | 10887 ft | 358 kts | 255° |
| 2026-05-01 09:00 | 41.18058 | 2.12371 | 11395 ft | 364 kts | 255° |
| 2026-05-01 09:00 | 41.17426 | 2.09105 | 12029 ft | 367 kts | 255° |
| 2026-05-01 09:01 | 41.16775 | 2.05821 | 12711 ft | 368 kts | 255° |
| 2026-05-01 09:01 | 41.16097 | 2.02538 | 13387 ft | 370 kts | 254° |
| 2026-05-01 09:01 | 41.15373 | 1.99250 | 14041 ft | 372 kts | 253° |
| 2026-05-01 09:01 | 41.14626 | 1.95953 | 14615 ft | 374 kts | 253° |
| 2026-05-01 09:02 | 41.13872 | 1.92641 | 15170 ft | 376 kts | 253° |
| 2026-05-01 09:02 | 41.13116 | 1.89309 | 15714 ft | 378 kts | 253° |
| 2026-05-01 09:02 | 41.12368 | 1.85964 | 16283 ft | 379 kts | 254° |
| 2026-05-01 09:02 | 41.11636 | 1.82658 | 16859 ft | 380 kts | 253° |
| 2026-05-01 09:03 | 41.10888 | 1.79287 | 17390 ft | 382 kts | 253° |
| 2026-05-01 09:03 | 41.10136 | 1.75902 | 17858 ft | 384 kts | 253° |
| 2026-05-01 09:03 | 41.09378 | 1.72502 | 18350 ft | 385 kts | 253° |
| 2026-05-01 09:03 | 41.08614 | 1.69096 | 18840 ft | 386 kts | 253° |
| 2026-05-01 09:04 | 41.07848 | 1.65675 | 19198 ft | 388 kts | 253° |
| 2026-05-01 09:04 | 41.07078 | 1.62227 | 19539 ft | 391 kts | 253° |
| 2026-05-01 09:04 | 41.06305 | 1.58768 | 19954 ft | 392 kts | 253° |
| 2026-05-01 09:04 | 41.05528 | 1.55305 | 20386 ft | 393 kts | 253° |
| 2026-05-01 09:05 | 41.04745 | 1.51829 | 20748 ft | 395 kts | 253° |
| 2026-05-01 09:05 | 41.03951 | 1.48322 | 21025 ft | 400 kts | 253° |
| 2026-05-01 09:05 | 41.03150 | 1.44782 | 21421 ft | 402 kts | 253° |
| 2026-05-01 09:05 | 41.02350 | 1.41233 | 21827 ft | 404 kts | 253° |
| 2026-05-01 09:06 | 41.01543 | 1.37665 | 22199 ft | 406 kts | 253° |
| 2026-05-01 09:06 | 41.00727 | 1.34069 | 22591 ft | 409 kts | 253° |
| 2026-05-01 09:06 | 40.99905 | 1.30459 | 23024 ft | 410 kts | 253° |
| 2026-05-01 09:06 | 40.99080 | 1.26835 | 23413 ft | 413 kts | 253° |
| 2026-05-01 09:07 | 40.98250 | 1.23189 | 23769 ft | 416 kts | 253° |
| 2026-05-01 09:07 | 40.97413 | 1.19517 | 24105 ft | 417 kts | 253° |
| 2026-05-01 09:07 | 40.96570 | 1.15835 | 24447 ft | 419 kts | 253° |
| 2026-05-01 09:07 | 40.95723 | 1.12142 | 24763 ft | 421 kts | 252° |
| 2026-05-01 09:08 | 40.94869 | 1.08422 | 25065 ft | 423 kts | 252° |
| 2026-05-01 09:08 | 40.94012 | 1.04689 | 25390 ft | 425 kts | 252° |
| 2026-05-01 09:08 | 40.93152 | 1.00942 | 25710 ft | 427 kts | 252° |
| 2026-05-01 09:08 | 40.92284 | 0.97176 | 26019 ft | 429 kts | 252° |
| 2026-05-01 09:09 | 40.91412 | 0.93402 | 26337 ft | 430 kts | 252° |
| 2026-05-01 09:09 | 40.90534 | 0.89613 | 26655 ft | 432 kts | 252° |
| 2026-05-01 09:09 | 40.89652 | 0.85814 | 26975 ft | 433 kts | 252° |
| 2026-05-01 09:09 | 40.88767 | 0.82005 | 27305 ft | 434 kts | 251° |
| 2026-05-01 09:10 | 40.87877 | 0.78188 | 27615 ft | 436 kts | 252° |
| 2026-05-01 09:10 | 40.87167 | 0.74284 | 27919 ft | 438 kts | 258° |
| 2026-05-01 09:10 | 40.86666 | 0.70308 | 28230 ft | 439 kts | 259° |
| 2026-05-01 09:10 | 40.86204 | 0.66313 | 28510 ft | 441 kts | 260° |
| 2026-05-01 09:11 | 40.85762 | 0.62297 | 28771 ft | 442 kts | 260° |
| 2026-05-01 09:11 | 40.85322 | 0.58274 | 29017 ft | 443 kts | 260° |
| 2026-05-01 09:11 | 40.84872 | 0.54243 | 29260 ft | 445 kts | 259° |
| 2026-05-01 09:11 | 40.84409 | 0.50201 | 29499 ft | 445 kts | 259° |
| 2026-05-01 09:12 | 40.83937 | 0.46162 | 29758 ft | 445 kts | 259° |
| 2026-05-01 09:12 | 40.83456 | 0.42129 | 30008 ft | 445 kts | 259° |
| 2026-05-01 09:12 | 40.82972 | 0.38097 | 30205 ft | 444 kts | 259° |
| 2026-05-01 09:12 | 40.82497 | 0.34130 | 30243 ft | 432 kts | 259° |
| 2026-05-01 09:13 | 40.81577 | 0.26442 | 30221 ft | 424 kts | 259° |
| 2026-05-01 09:13 | 40.80652 | 0.18708 | 30232 ft | 423 kts | 259° |
| 2026-05-01 09:14 | 40.79725 | 0.11034 | 30225 ft | 423 kts | 259° |
| 2026-05-01 09:14 | 40.78791 | 0.03368 | 30222 ft | 423 kts | 259° |
| 2026-05-01 09:15 | 40.77858 | -0.04241 | 30233 ft | 423 kts | 258° |
| 2026-05-01 09:15 | 40.76922 | -0.11894 | 30231 ft | 422 kts | 258° |
| 2026-05-01 09:16 | 40.75984 | -0.19533 | 30227 ft | 422 kts | 258° |
| 2026-05-01 09:17 | 40.74556 | -0.30971 | 30217 ft | 421 kts | 258° |
| 2026-05-01 09:17 | 40.73122 | -0.42395 | 30206 ft | 421 kts | 258° |
| 2026-05-01 09:18 | 40.71681 | -0.53805 | 30213 ft | 421 kts | 258° |
| 2026-05-01 09:19 | 40.70229 | -0.65203 | 30201 ft | 420 kts | 258° |
| 2026-05-01 09:20 | 40.68760 | -0.76595 | 30212 ft | 420 kts | 258° |
| 2026-05-01 09:21 | 40.66789 | -0.91765 | 30201 ft | 420 kts | 258° |
| 2026-05-01 09:21 | 40.65295 | -1.03122 | 30211 ft | 419 kts | 257° |
| 2026-05-01 09:22 | 40.62644 | -1.18033 | 30220 ft | 418 kts | 253° |
| 2026-05-01 09:23 | 40.60546 | -1.29145 | 30214 ft | 420 kts | 254° |
| 2026-05-01 09:24 | 40.58549 | -1.40364 | 30212 ft | 420 kts | 254° |
| 2026-05-01 09:25 | 40.55856 | -1.55320 | 30208 ft | 420 kts | 254° |
| 2026-05-01 09:26 | 40.53809 | -1.66534 | 30195 ft | 421 kts | 254° |
| 2026-05-01 09:26 | 40.51719 | -1.77891 | 29919 ft | 429 kts | 254° |
| 2026-05-01 09:27 | 40.50320 | -1.85442 | 28361 ft | 425 kts | 254° |
| 2026-05-01 09:27 | 40.49618 | -1.89222 | 27432 ft | 427 kts | 254° |
| 2026-05-01 09:27 | 40.48916 | -1.93007 | 26694 ft | 425 kts | 254° |
| 2026-05-01 09:28 | 40.48221 | -1.96760 | 26036 ft | 421 kts | 254° |
| 2026-05-01 09:28 | 40.47531 | -2.00473 | 25394 ft | 417 kts | 254° |
| 2026-05-01 09:28 | 40.46787 | -2.04118 | 24881 ft | 408 kts | 249° |
| 2026-05-01 09:28 | 40.45336 | -2.07245 | 24346 ft | 397 kts | 224° |
| 2026-05-01 09:29 | 40.40563 | -2.09685 | 24105 ft | 366 kts | 176° |
| 2026-05-01 09:29 | 40.38184 | -2.08712 | 23981 ft | 357 kts | 151° |
| 2026-05-01 09:30 | 40.35600 | -2.03517 | 23749 ft | 347 kts | 100° |
| 2026-05-01 09:30 | 40.35555 | -2.00403 | 23608 ft | 339 kts | 86° |
| 2026-05-01 09:30 | 40.37447 | -1.94796 | 22302 ft | 355 kts | 44° |
| 2026-05-01 09:31 | 40.39483 | -1.92900 | 21379 ft | 366 kts | 22° |
| 2026-05-01 09:31 | 40.41969 | -1.92038 | 21015 ft | 381 kts | 2° |
| 2026-05-01 09:31 | 40.47137 | -1.93949 | 20521 ft | 405 kts | 319° |
| 2026-05-01 09:32 | 40.48995 | -1.96747 | 20271 ft | 401 kts | 297° |
| 2026-05-01 09:32 | 40.49797 | -2.03695 | 19784 ft | 392 kts | 256° |
| 2026-05-01 09:32 | 40.49095 | -2.07153 | 19537 ft | 392 kts | 253° |
| 2026-05-01 09:33 | 40.48356 | -2.10595 | 19297 ft | 391 kts | 253° |
| 2026-05-01 09:33 | 40.47614 | -2.14024 | 19056 ft | 390 kts | 253° |
| 2026-05-01 09:33 | 40.46137 | -2.20854 | 18600 ft | 388 kts | 253° |
| 2026-05-01 09:34 | 40.45403 | -2.24260 | 18345 ft | 387 kts | 253° |
| 2026-05-01 09:34 | 40.44673 | -2.27655 | 18076 ft | 385 kts | 253° |
| 2026-05-01 09:34 | 40.43222 | -2.34395 | 17546 ft | 383 kts | 253° |
| 2026-05-01 09:35 | 40.42496 | -2.37758 | 17284 ft | 382 kts | 253° |
| 2026-05-01 09:35 | 40.41052 | -2.44443 | 16768 ft | 379 kts | 253° |
| 2026-05-01 09:35 | 40.40332 | -2.47762 | 16514 ft | 378 kts | 253° |
| 2026-05-01 09:36 | 40.39615 | -2.51064 | 16269 ft | 371 kts | 253° |
| 2026-05-01 09:36 | 40.38917 | -2.54273 | 15904 ft | 361 kts | 253° |
| 2026-05-01 09:36 | 40.38236 | -2.57403 | 15495 ft | 354 kts | 253° |
| 2026-05-01 09:36 | 40.37569 | -2.60474 | 15109 ft | 347 kts | 253° |
| 2026-05-01 09:37 | 40.36909 | -2.63502 | 14534 ft | 346 kts | 253° |
| 2026-05-01 09:37 | 40.35546 | -2.69709 | 12947 ft | 355 kts | 253° |
| 2026-05-01 09:37 | 40.34866 | -2.72812 | 12334 ft | 353 kts | 253° |
| 2026-05-01 09:38 | 40.33578 | -2.78665 | 11225 ft | 348 kts | 252° |
| 2026-05-01 09:38 | 40.32909 | -2.81691 | 10865 ft | 346 kts | 252° |
| 2026-05-01 09:38 | 40.32240 | -2.84721 | 10626 ft | 346 kts | 253° |
| 2026-05-01 09:39 | 40.30909 | -2.90743 | 10172 ft | 336 kts | 252° |
| 2026-05-01 09:39 | 40.30283 | -2.93571 | 10041 ft | 307 kts | 252° |
| 2026-05-01 09:39 | 40.29716 | -2.96145 | 9704 ft | 285 kts | 252° |
| 2026-05-01 09:40 | 40.29164 | -2.98635 | 9317 ft | 282 kts | 252° |
| 2026-05-01 09:40 | 40.28075 | -3.03511 | 8656 ft | 275 kts | 252° |
| 2026-05-01 09:40 | 40.27714 | -3.05115 | 8568 ft | 279 kts | 252° |
| 2026-05-01 09:41 | 40.27167 | -3.07548 | 8451 ft | 278 kts | 252° |
| 2026-05-01 09:41 | 40.26085 | -3.12403 | 8195 ft | 277 kts | 252° |
| 2026-05-01 09:41 | 40.25386 | -3.15523 | 7970 ft | 266 kts | 251° |
| 2026-05-01 09:42 | 40.24967 | -3.17889 | 7820 ft | 267 kts | 258° |
| 2026-05-01 09:42 | 40.24798 | -3.19518 | 7783 ft | 269 kts | 262° |
| 2026-05-01 09:42 | 40.24836 | -3.24507 | 7660 ft | 276 kts | 275° |
| 2026-05-01 09:43 | 40.25510 | -3.29450 | 7323 ft | 273 kts | 279° |
| 2026-05-01 09:43 | 40.25887 | -3.31870 | 7152 ft | 270 kts | 282° |
| 2026-05-01 09:43 | 40.26653 | -3.34110 | 6853 ft | 273 kts | 305° |
| 2026-05-01 09:44 | 40.29713 | -3.36375 | 6293 ft | 238 kts | 342° |
| 2026-05-01 09:44 | 40.31155 | -3.37213 | 6057 ft | 218 kts | 323° |
| 2026-05-01 09:44 | 40.32351 | -3.38364 | 5690 ft | 213 kts | 322° |
| 2026-05-01 09:45 | 40.33530 | -3.39539 | 5291 ft | 213 kts | 320° |
| 2026-05-01 09:45 | 40.35792 | -3.41879 | 4888 ft | 205 kts | 319° |
| 2026-05-01 09:45 | 40.36899 | -3.43038 | 4575 ft | 202 kts | 321° |
| 2026-05-01 09:46 | 40.38010 | -3.44145 | 4236 ft | 199 kts | 322° |
| 2026-05-01 09:46 | 40.39087 | -3.45246 | 3967 ft | 193 kts | 322° |
| 2026-05-01 09:46 | 40.40127 | -3.46282 | 3794 ft | 180 kts | 323° |
| 2026-05-01 09:46 | 40.41051 | -3.47248 | 3577 ft | 163 kts | 320° |
| 2026-05-01 09:47 | 40.41923 | -3.48162 | 3283 ft | 158 kts | 322° |
| 2026-05-01 09:47 | 40.42787 | -3.49024 | 3042 ft | 154 kts | 323° |
| 2026-05-01 09:47 | 40.43628 | -3.49864 | 2861 ft | 150 kts | 323° |
| 2026-05-01 09:47 | 40.44467 | -3.50698 | 2663 ft | 152 kts | 322° |
| 2026-05-01 09:48 | 40.45298 | -3.51544 | 2441 ft | 149 kts | 322° |
| 2026-05-01 09:48 | 40.46115 | -3.52371 | 2259 ft | 150 kts | 322° |
| 2026-05-01 09:48 | 40.46948 | -3.53209 | 2066 ft | 151 kts | 321° |
| 2026-05-01 09:48 | 40.47780 | -3.54058 | 1929 ft | 147 kts | 321° |
| 2026-05-01 09:49 | 40.48497 | -3.54785 | 1940 ft | 93 kts | 323° |
| 2026-05-01 09:49 | 40.48770 | -3.55127 | 1951 ft | 35 kts | 295° |
| 2026-05-01 09:49 | 40.48843 | -3.55346 | 1954 ft | 24 kts | 294° |
| 2026-05-01 09:49 | 40.48939 | -3.55511 | 1953 ft | 22 kts | 321° |
| 2026-05-01 09:50 | 40.49056 | -3.55633 | 1954 ft | 21 kts | 322° |
| 2026-05-01 09:50 | 40.49158 | -3.55737 | 1959 ft | 17 kts | 322° |
| 2026-05-01 09:50 | 40.49262 | -3.55838 | 1960 ft | 19 kts | 324° |
| 2026-05-01 09:50 | 40.49299 | -3.55943 | 1960 ft | 13 kts | 270° |
| 2026-05-01 09:51 | 40.49298 | -3.56061 | 1959 ft | 14 kts | 270° |
| 2026-05-01 09:51 | 40.49261 | -3.56138 | 1959 ft | 10 kts | 190° |
| 2026-05-01 09:51 | 40.49182 | -3.56140 | 1959 ft | 15 kts | 179° |
| 2026-05-01 09:51 | 40.49055 | -3.56139 | 1959 ft | 22 kts | 180° |
| 2026-05-01 09:52 | 40.48885 | -3.56138 | 1959 ft | 23 kts | 180° |
| 2026-05-01 09:52 | 40.48789 | -3.56148 | 1959 ft | 10 kts | 215° |
| 2026-05-01 09:52 | 40.48769 | -3.56252 | 1962 ft | 14 kts | 269° |
| 2026-05-01 09:52 | 40.48768 | -3.56398 | 1966 ft | 18 kts | 269° |
| 2026-05-01 09:53 | 40.48767 | -3.56576 | 1975 ft | 21 kts | 269° |
| 2026-05-01 09:53 | 40.48769 | -3.56791 | 1978 ft | 26 kts | 266° |
| 2026-05-01 09:53 | 40.48765 | -3.57009 | 1983 ft | 21 kts | 270° |
| 2026-05-01 09:53 | 40.48764 | -3.57181 | 1983 ft | 16 kts | 270° |
| 2026-05-01 09:54 | 40.48764 | -3.57321 | 1986 ft | 16 kts | 270° |
| 2026-05-01 09:54 | 40.48764 | -3.57483 | 1989 ft | 19 kts | 270° |
| 2026-05-01 09:54 | 40.48763 | -3.57683 | 1992 ft | 25 kts | 270° |
| 2026-05-01 09:54 | 40.48762 | -3.57926 | 1999 ft | 28 kts | 270° |
| 2026-05-01 09:55 | 40.48720 | -3.58056 | 2003 ft | 6 kts | 187° |
| 2026-05-01 09:55 | 40.48661 | -3.58051 | 2003 ft | 12 kts | 177° |
| 2026-05-01 09:55 | 40.48598 | -3.58131 | 2005 ft | 17 kts | 265° |
| 2026-05-01 09:55 | 40.48597 | -3.58300 | 2010 ft | 20 kts | 270° |
| 2026-05-01 09:56 | 40.48595 | -3.58493 | 2017 ft | 22 kts | 270° |
| 2026-05-01 09:56 | 40.48593 | -3.58694 | 2031 ft | 20 kts | 269° |
| 2026-05-01 09:56 | 40.48614 | -3.58854 | 2022 ft | 16 kts | 271° |
| 2026-05-01 09:56 | 40.48614 | -3.58971 | 2022 ft | 5 kts | 270° |
| 2026-05-01 09:57 | 40.48614 | -3.58974 | 2022 ft | 0 kts | 270° |